createdAt,value
2023-10-03T00:00:44.379Z,0.00
2023-10-03T00:01:44.350Z,0.00
2023-10-03T00:02:44.352Z,0.00
2023-10-03T00:03:44.353Z,0.00
2023-10-03T00:04:44.291Z,0.00
2023-10-03T00:05:44.346Z,0.00
2023-10-03T00:06:44.278Z,0.00
2023-10-03T00:07:44.243Z,0.00
2023-10-03T00:08:44.272Z,0.00
2023-10-03T00:09:44.226Z,0.00
2023-10-03T00:10:44.209Z,0.00
2023-10-03T00:11:44.283Z,0.00
2023-10-03T00:12:44.178Z,0.00
2023-10-03T00:13:44.157Z,0.00
2023-10-03T00:14:44.204Z,0.00
2023-10-03T00:15:44.160Z,0.00
2023-10-03T00:16:44.131Z,0.00
2023-10-03T00:17:44.153Z,0.00
2023-10-03T00:18:44.097Z,0.00
2023-10-03T00:19:44.111Z,0.00
2023-10-03T00:20:44.323Z,0.00
2023-10-03T00:21:44.073Z,0.00
2023-10-03T00:22:44.042Z,0.00
2023-10-03T00:23:44.051Z,0.00
2023-10-03T00:24:44.025Z,0.00
2023-10-03T00:25:43.996Z,0.00
2023-10-03T00:26:44.042Z,0.00
2023-10-03T00:27:43.976Z,0.00
2023-10-03T00:28:43.971Z,0.00
2023-10-03T00:29:44.020Z,0.00
2023-10-03T00:30:43.968Z,0.00
2023-10-03T00:31:43.944Z,0.00
2023-10-03T00:32:44.059Z,0.00
2023-10-03T00:33:44.041Z,0.00
2023-10-03T00:34:43.888Z,0.00
2023-10-03T00:35:44.237Z,0.00
2023-10-03T00:36:43.857Z,0.00
2023-10-03T00:37:43.833Z,0.00
2023-10-03T00:38:43.904Z,0.00
2023-10-03T00:39:43.817Z,0.00
2023-10-03T00:40:43.809Z,0.00
2023-10-03T00:41:43.853Z,0.00
2023-10-03T00:42:43.778Z,0.00
2023-10-03T00:43:43.776Z,0.00
2023-10-03T00:44:43.771Z,0.00
2023-10-03T00:45:43.745Z,0.00
2023-10-03T00:46:43.801Z,0.00
2023-10-03T00:47:43.809Z,0.00
2023-10-03T00:48:43.713Z,0.00
2023-10-03T00:49:43.671Z,0.00
2023-10-03T00:50:43.755Z,0.00
2023-10-03T00:51:43.678Z,0.00
2023-10-03T00:52:43.658Z,0.00
2023-10-03T00:53:43.653Z,0.00
2023-10-03T00:54:43.625Z,0.00
2023-10-03T00:55:43.598Z,0.00
2023-10-03T00:56:43.635Z,0.00
2023-10-03T00:57:43.625Z,0.00
2023-10-03T00:58:43.564Z,0.00
2023-10-03T00:59:43.597Z,0.00
2023-10-03T01:00:43.579Z,0.00
2023-10-03T01:01:43.545Z,0.00
2023-10-03T01:02:43.731Z,0.00
2023-10-03T01:03:43.597Z,0.00
2023-10-03T01:04:43.488Z,0.00
2023-10-03T01:05:43.491Z,0.00
2023-10-03T01:06:43.475Z,0.00
2023-10-03T01:07:43.422Z,0.00
2023-10-03T01:08:43.542Z,0.00
2023-10-03T01:09:43.400Z,0.00
2023-10-03T01:10:43.425Z,0.00
2023-10-03T01:11:43.461Z,0.00
2023-10-03T01:12:43.372Z,0.00
2023-10-03T01:13:43.360Z,0.00
2023-10-03T01:14:43.412Z,0.00
2023-10-03T01:15:43.336Z,0.00
2023-10-03T01:16:43.443Z,0.00
2023-10-03T01:17:43.372Z,0.00
2023-10-03T01:18:43.300Z,0.00
2023-10-03T01:19:43.274Z,0.00
2023-10-03T01:20:43.339Z,0.00
2023-10-03T01:21:43.324Z,0.00
2023-10-03T01:22:43.253Z,0.00
2023-10-03T01:23:43.261Z,0.00
2023-10-03T01:24:43.207Z,0.00
2023-10-03T01:25:43.190Z,0.00
2023-10-03T01:26:43.251Z,0.00
2023-10-03T01:27:43.180Z,0.00
2023-10-03T01:28:43.203Z,0.00
2023-10-03T01:29:43.182Z,0.00
2023-10-03T01:30:43.184Z,0.00
2023-10-03T01:31:43.110Z,0.00
2023-10-03T01:32:43.164Z,0.00
2023-10-03T01:33:43.080Z,0.00
2023-10-03T01:34:43.087Z,0.00
2023-10-03T01:35:43.093Z,0.00
2023-10-03T01:36:43.060Z,0.00
2023-10-03T01:37:43.038Z,0.00
2023-10-03T01:38:43.182Z,0.00
2023-10-03T01:39:43.013Z,0.00
2023-10-03T01:40:43.072Z,0.00
2023-10-03T01:41:42.996Z,0.00
2023-10-03T01:42:42.968Z,0.00
2023-10-03T01:43:42.999Z,0.00
2023-10-03T01:44:43.011Z,0.00
2023-10-03T01:45:42.933Z,0.00
2023-10-03T01:46:42.960Z,0.00
2023-10-03T01:47:43.036Z,0.00
2023-10-03T01:48:42.981Z,0.00
2023-10-03T01:49:42.865Z,0.00
2023-10-03T01:50:42.907Z,0.00
2023-10-03T01:51:42.856Z,0.00
2023-10-03T01:52:42.841Z,0.00
2023-10-03T01:53:42.905Z,0.00
2023-10-03T01:54:42.803Z,0.00
2023-10-03T01:55:42.809Z,0.00
2023-10-03T01:56:42.840Z,0.00
2023-10-03T01:57:42.814Z,0.00
2023-10-03T01:58:42.792Z,0.00
2023-10-03T01:59:42.780Z,0.00
2023-10-03T02:00:42.749Z,0.00
2023-10-03T02:01:42.750Z,0.00
2023-10-03T02:02:42.856Z,0.00
2023-10-03T02:03:42.812Z,0.00
2023-10-03T02:04:42.665Z,0.00
2023-10-03T02:05:42.718Z,0.00
2023-10-03T02:06:42.665Z,0.00
2023-10-03T02:07:42.644Z,0.00
2023-10-03T02:08:42.648Z,0.00
2023-10-03T02:09:42.596Z,0.00
2023-10-03T02:10:42.602Z,0.00
2023-10-03T02:11:42.655Z,0.00
2023-10-03T02:12:42.557Z,0.00
2023-10-03T02:13:42.549Z,0.00
2023-10-03T02:14:42.573Z,0.00
2023-10-03T02:15:42.561Z,0.00
2023-10-03T02:16:42.673Z,0.00
2023-10-03T02:17:42.611Z,0.00
2023-10-03T02:18:42.561Z,0.00
2023-10-03T02:19:42.458Z,0.00
2023-10-03T02:20:42.465Z,0.00
2023-10-03T02:21:42.461Z,0.00
2023-10-03T02:22:42.435Z,0.00
2023-10-03T02:23:42.460Z,0.00
2023-10-03T02:24:42.397Z,0.00
2023-10-03T02:25:42.409Z,0.00
2023-10-03T02:26:42.437Z,0.00
2023-10-03T02:27:42.393Z,0.00
2023-10-03T02:28:42.492Z,0.00
2023-10-03T02:29:42.385Z,0.00
2023-10-03T02:30:42.331Z,0.00
2023-10-03T02:31:42.318Z,0.00
2023-10-03T02:32:42.589Z,0.00
2023-10-03T02:33:42.359Z,0.00
2023-10-03T02:34:42.290Z,0.00
2023-10-03T02:35:42.271Z,0.00
2023-10-03T02:36:42.254Z,0.00
2023-10-03T02:37:42.217Z,0.00
2023-10-03T02:38:42.241Z,0.00
2023-10-03T02:39:42.201Z,0.00
2023-10-03T02:40:42.182Z,0.00
2023-10-03T02:41:43.520Z,0.00
2023-10-03T02:42:42.185Z,0.00
2023-10-03T02:43:42.142Z,0.00
2023-10-03T02:44:42.196Z,0.00
2023-10-03T02:45:42.122Z,0.00
2023-10-03T02:46:42.115Z,0.00
2023-10-03T02:47:42.127Z,0.00
2023-10-03T02:48:42.101Z,0.00
2023-10-03T02:49:42.076Z,0.00
2023-10-03T02:50:42.081Z,0.00
2023-10-03T02:51:42.059Z,0.00
2023-10-03T02:52:42.031Z,0.00
2023-10-03T02:53:42.086Z,0.00
2023-10-03T02:54:42.022Z,0.00
2023-10-03T02:55:41.980Z,0.00
2023-10-03T02:56:42.029Z,0.00
2023-10-03T02:57:41.964Z,0.00
2023-10-03T02:58:41.959Z,0.00
2023-10-03T02:59:41.950Z,0.00
2023-10-03T03:00:41.921Z,0.00
2023-10-03T03:01:41.992Z,0.00
2023-10-03T03:02:42.022Z,0.00
2023-10-03T03:03:41.958Z,0.00
2023-10-03T03:04:42.003Z,0.00
2023-10-03T03:05:42.029Z,0.00
2023-10-03T03:06:41.849Z,0.00
2023-10-03T03:07:42.782Z,0.00
2023-10-03T03:08:42.151Z,0.00
2023-10-03T03:09:41.826Z,0.00
2023-10-03T03:10:41.899Z,0.00
2023-10-03T03:11:41.822Z,0.00
2023-10-03T03:12:41.755Z,0.00
2023-10-03T03:13:41.728Z,0.00
2023-10-03T03:14:41.793Z,0.00
2023-10-03T03:15:41.734Z,0.00
2023-10-03T03:16:41.725Z,0.00
2023-10-03T03:17:41.733Z,0.00
2023-10-03T03:18:41.737Z,0.00
2023-10-03T03:19:41.654Z,0.00
2023-10-03T03:20:41.704Z,0.00
2023-10-03T03:21:41.660Z,0.00
2023-10-03T03:22:41.631Z,0.00
2023-10-03T03:23:41.641Z,0.00
2023-10-03T03:24:41.622Z,0.00
2023-10-03T03:25:41.558Z,0.00
2023-10-03T03:26:41.822Z,0.00
2023-10-03T03:27:41.586Z,0.00
2023-10-03T03:28:41.528Z,0.00
2023-10-03T03:29:41.578Z,0.00
2023-10-03T03:30:41.522Z,0.00
2023-10-03T03:31:41.576Z,0.00
2023-10-03T03:32:41.591Z,0.00
2023-10-03T03:33:41.607Z,0.00
2023-10-03T03:34:41.470Z,0.00
2023-10-03T03:35:41.458Z,0.00
2023-10-03T03:36:41.438Z,0.00
2023-10-03T03:37:41.421Z,0.00
2023-10-03T03:38:41.478Z,0.00
2023-10-03T03:39:41.385Z,0.00
2023-10-03T03:40:41.389Z,0.00
2023-10-03T03:41:41.427Z,0.00
2023-10-03T03:42:41.415Z,0.00
2023-10-03T03:43:41.331Z,0.00
2023-10-03T03:44:41.371Z,0.00
2023-10-03T03:45:41.328Z,0.00
2023-10-03T03:46:41.305Z,0.00
2023-10-03T03:47:41.374Z,0.00
2023-10-03T03:48:41.306Z,0.00
2023-10-03T03:49:41.264Z,0.00
2023-10-03T03:50:41.283Z,0.00
2023-10-03T03:51:41.218Z,0.00
2023-10-03T03:52:41.223Z,0.00
2023-10-03T03:53:41.282Z,0.00
2023-10-03T03:54:41.212Z,0.00
2023-10-03T03:55:41.190Z,0.00
2023-10-03T03:56:41.193Z,0.00
2023-10-03T03:57:41.169Z,0.00
2023-10-03T03:58:41.168Z,0.00
2023-10-03T03:59:41.192Z,0.00
2023-10-03T04:00:41.108Z,0.00
2023-10-03T04:01:41.118Z,0.00
2023-10-03T04:02:41.151Z,0.00
2023-10-03T04:03:41.215Z,0.00
2023-10-03T04:04:41.106Z,0.00
2023-10-03T04:05:41.065Z,0.00
2023-10-03T04:06:41.019Z,0.00
2023-10-03T04:07:41.022Z,0.00
2023-10-03T04:08:51.718Z,0.00
2023-10-03T04:09:41.985Z,0.00
2023-10-03T04:10:40.955Z,0.00
2023-10-03T04:11:41.070Z,0.00
2023-10-03T04:12:40.955Z,0.00
2023-10-03T04:13:40.926Z,0.00
2023-10-03T04:14:40.997Z,0.00
2023-10-03T04:15:40.956Z,0.00
2023-10-03T04:16:41.448Z,0.00
2023-10-03T04:17:41.052Z,0.00
2023-10-03T04:18:40.978Z,0.00
2023-10-03T04:19:40.916Z,0.00
2023-10-03T04:20:40.865Z,0.00
2023-10-03T04:21:40.866Z,0.00
2023-10-03T04:22:40.851Z,0.00
2023-10-03T04:23:40.919Z,0.00
2023-10-03T04:24:40.777Z,0.00
2023-10-03T04:25:40.824Z,0.00
2023-10-03T04:26:41.020Z,0.00
2023-10-03T04:27:40.730Z,0.00
2023-10-03T04:28:40.732Z,0.00
2023-10-03T04:29:40.776Z,0.00
2023-10-03T04:30:40.705Z,0.00
2023-10-03T04:31:40.746Z,0.00
2023-10-03T04:32:40.759Z,0.00
2023-10-03T04:33:40.836Z,0.00
2023-10-03T04:34:40.652Z,0.00
2023-10-03T04:35:40.745Z,0.00
2023-10-03T04:36:40.615Z,0.00
2023-10-03T04:37:40.602Z,0.00
2023-10-03T04:38:40.660Z,0.00
2023-10-03T04:39:40.585Z,0.00
2023-10-03T04:40:40.567Z,0.00
2023-10-03T04:41:40.584Z,0.00
2023-10-03T04:42:40.572Z,0.00
2023-10-03T04:43:40.556Z,4.00
2023-10-03T04:44:40.565Z,4.00
2023-10-03T04:45:40.644Z,0.00
2023-10-03T04:46:40.518Z,4.00
2023-10-03T04:47:40.605Z,0.00
2023-10-03T04:48:40.645Z,4.00
2023-10-03T04:49:40.506Z,4.00
2023-10-03T04:50:40.472Z,4.00
2023-10-03T04:51:40.521Z,8.00
2023-10-03T04:52:40.431Z,4.00
2023-10-03T04:53:40.430Z,8.00
2023-10-03T04:54:40.385Z,12.00
2023-10-03T04:55:40.386Z,8.00
2023-10-03T04:56:40.425Z,16.00
2023-10-03T04:57:40.331Z,16.00
2023-10-03T04:58:40.321Z,20.00
2023-10-03T04:59:40.369Z,24.00
2023-10-03T05:00:54.382Z,28.00
2023-10-03T05:01:40.268Z,32.00
2023-10-03T05:02:40.307Z,36.00
2023-10-03T05:03:40.542Z,44.00
2023-10-03T05:04:40.261Z,52.00
2023-10-03T05:05:40.265Z,56.00
2023-10-03T05:06:40.222Z,64.00
2023-10-03T05:07:40.189Z,72.00
2023-10-03T05:08:40.278Z,80.00
2023-10-03T05:09:40.186Z,88.00
2023-10-03T05:10:40.151Z,104.00
2023-10-03T05:11:40.160Z,112.00
2023-10-03T05:12:40.161Z,120.00
2023-10-03T05:13:40.124Z,128.00
2023-10-03T05:14:40.168Z,144.00
2023-10-03T05:15:40.115Z,160.00
2023-10-03T05:16:40.088Z,176.00
2023-10-03T05:17:40.137Z,192.00
2023-10-03T05:18:40.127Z,212.00
2023-10-03T05:19:40.046Z,228.00
2023-10-03T05:20:40.094Z,248.00
2023-10-03T05:21:40.015Z,268.00
2023-10-03T05:22:40.025Z,292.00
2023-10-03T05:23:40.033Z,312.00
2023-10-03T05:24:39.965Z,340.00
2023-10-03T05:25:40.061Z,364.00
2023-10-03T05:26:39.977Z,392.00
2023-10-03T05:27:39.946Z,424.00
2023-10-03T05:28:39.901Z,460.00
2023-10-03T05:29:39.931Z,492.00
2023-10-03T05:30:40.497Z,524.00
2023-10-03T05:31:39.904Z,544.00
2023-10-03T05:32:39.970Z,580.00
2023-10-03T05:33:39.920Z,612.00
2023-10-03T05:34:39.831Z,620.00
2023-10-03T05:35:39.869Z,636.00
2023-10-03T05:36:39.821Z,696.00
2023-10-03T05:37:39.789Z,772.00
2023-10-03T05:38:39.781Z,820.00
2023-10-03T05:39:39.765Z,864.00
2023-10-03T05:40:39.757Z,912.00
2023-10-03T05:41:39.813Z,952.00
2023-10-03T05:42:39.720Z,980.00
2023-10-03T05:44:39.736Z,1072.00
2023-10-03T05:45:39.704Z,1152.00
2023-10-03T05:46:39.690Z,1244.00
2023-10-03T05:47:39.773Z,1340.00
2023-10-03T05:48:39.696Z,1492.00
2023-10-03T05:49:39.659Z,1660.00
2023-10-03T05:50:39.646Z,1964.00
2023-10-03T05:51:39.631Z,3832.00
2023-10-03T05:52:39.593Z,5720.00
2023-10-03T05:53:39.603Z,4936.00
2023-10-03T05:54:39.579Z,3168.00
2023-10-03T05:55:39.576Z,2156.00
2023-10-03T05:56:39.584Z,2180.00
2023-10-03T05:57:39.530Z,3228.00
2023-10-03T05:58:39.512Z,3124.00
2023-10-03T05:59:39.514Z,2868.00
2023-10-03T06:00:39.552Z,2716.00
2023-10-03T06:01:39.478Z,2448.00
2023-10-03T06:02:39.558Z,2396.00
2023-10-03T06:03:39.553Z,3424.00
2023-10-03T06:04:39.464Z,4372.00
2023-10-03T06:05:39.453Z,2684.00
2023-10-03T06:06:39.421Z,2632.00
2023-10-03T06:07:39.409Z,2792.00
2023-10-03T06:08:39.428Z,3080.00
2023-10-03T06:09:39.393Z,3556.00
2023-10-03T06:10:39.347Z,4412.00
2023-10-03T06:11:39.385Z,4108.00
2023-10-03T06:12:39.352Z,2264.00
2023-10-03T06:13:39.323Z,2168.00
2023-10-03T06:14:39.342Z,2144.00
2023-10-03T06:15:39.280Z,2148.00
2023-10-03T06:16:39.341Z,2156.00
2023-10-03T06:17:39.310Z,2184.00
2023-10-03T06:18:39.294Z,2284.00
2023-10-03T06:19:39.246Z,2436.00
2023-10-03T06:20:39.326Z,2876.00
2023-10-03T06:21:39.307Z,4172.00
2023-10-03T06:22:39.215Z,7380.00
2023-10-03T06:23:39.202Z,6840.00
2023-10-03T06:24:39.150Z,3176.00
2023-10-03T06:25:39.165Z,3132.00
2023-10-03T06:26:39.168Z,3136.00
2023-10-03T06:27:39.429Z,3156.00
2023-10-03T06:28:39.128Z,2580.00
2023-10-03T06:29:39.147Z,3276.00
2023-10-03T06:30:39.139Z,4020.00
2023-10-03T06:31:39.081Z,3492.00
2023-10-03T06:32:39.118Z,3132.00
2023-10-03T06:33:39.135Z,2928.00
2023-10-03T06:34:39.074Z,2920.00
2023-10-03T06:35:39.035Z,3188.00
2023-10-03T06:36:39.023Z,3552.00
2023-10-03T06:37:39.033Z,7080.00
2023-10-03T06:38:39.000Z,11360.00
2023-10-03T06:39:38.962Z,9220.00
2023-10-03T06:40:38.981Z,8128.00
2023-10-03T06:41:42.695Z,6196.00
2023-10-03T06:42:40.657Z,4544.00
2023-10-03T06:43:38.903Z,7540.00
2023-10-03T06:44:38.995Z,9188.00
2023-10-03T06:45:38.910Z,8012.00
2023-10-03T06:46:38.893Z,20928.00
2023-10-03T06:47:39.028Z,10552.00
2023-10-03T06:48:38.923Z,5536.00
2023-10-03T06:49:38.824Z,4660.00
2023-10-03T06:50:38.868Z,10544.00
2023-10-03T06:51:38.817Z,8192.00
2023-10-03T06:52:38.799Z,4916.00
2023-10-03T06:53:38.797Z,5048.00
2023-10-03T06:54:38.778Z,3364.00
2023-10-03T06:55:38.779Z,4220.00
2023-10-03T06:56:38.771Z,3432.00
2023-10-03T06:57:38.766Z,3768.00
2023-10-03T06:58:38.711Z,4020.00
2023-10-03T06:59:38.733Z,4312.00
2023-10-03T07:00:38.682Z,3780.00
2023-10-03T07:01:38.668Z,3736.00
2023-10-03T07:02:38.698Z,3752.00
2023-10-03T07:03:38.799Z,3936.00
2023-10-03T07:04:38.658Z,4456.00
2023-10-03T07:05:38.695Z,5008.00
2023-10-03T07:06:38.645Z,3892.00
2023-10-03T07:07:38.600Z,4568.00
2023-10-03T07:08:38.637Z,4684.00
2023-10-03T07:09:43.108Z,4480.00
2023-10-03T07:10:40.258Z,4780.00
2023-10-03T07:11:38.705Z,4960.00
2023-10-03T07:12:38.555Z,5824.00
2023-10-03T07:13:38.624Z,6396.00
2023-10-03T07:14:38.560Z,6352.00
2023-10-03T07:15:38.482Z,4220.00
2023-10-03T07:16:38.511Z,4500.00
2023-10-03T07:17:39.029Z,6292.00
2023-10-03T07:18:40.386Z,14404.00
2023-10-03T07:19:38.422Z,7712.00
2023-10-03T07:20:39.046Z,4896.00
2023-10-03T07:21:38.411Z,4952.00
2023-10-03T07:22:38.425Z,4792.00
2023-10-03T07:23:40.056Z,5028.00
2023-10-03T07:24:38.381Z,8816.00
2023-10-03T07:25:39.150Z,11004.00
2023-10-03T07:26:39.974Z,18816.00
2023-10-03T07:27:38.605Z,16832.00
2023-10-03T07:28:38.294Z,11208.00
2023-10-03T07:29:38.644Z,9988.00
2023-10-03T07:30:38.508Z,15008.00
2023-10-03T07:31:38.526Z,23424.00
2023-10-03T07:32:38.340Z,26464.00
2023-10-03T07:33:38.347Z,21888.00
2023-10-03T07:34:38.240Z,17376.00
2023-10-03T07:35:38.240Z,20608.00
2023-10-03T07:36:38.204Z,27200.00
2023-10-03T07:37:38.187Z,30144.00
2023-10-03T07:38:38.213Z,26464.00
2023-10-03T07:39:38.169Z,33536.00
2023-10-03T07:40:38.141Z,34720.00
2023-10-03T07:41:38.165Z,23552.00
2023-10-03T07:42:38.128Z,17792.00
2023-10-03T07:43:38.233Z,18848.00
2023-10-03T07:44:38.116Z,36736.00
2023-10-03T07:45:38.105Z,25824.00
2023-10-03T07:46:38.144Z,17280.00
2023-10-03T07:47:38.152Z,16256.00
2023-10-03T07:48:38.104Z,16160.00
2023-10-03T07:49:38.090Z,7844.00
2023-10-03T07:50:38.070Z,5280.00
2023-10-03T07:51:38.211Z,3680.00
2023-10-03T07:52:38.001Z,2940.00
2023-10-03T07:53:38.251Z,2584.00
2023-10-03T07:54:38.062Z,2372.00
2023-10-03T07:55:38.258Z,2224.00
2023-10-03T07:56:38.041Z,2148.00
2023-10-03T07:57:37.940Z,2128.00
2023-10-03T07:58:37.942Z,2180.00
2023-10-03T07:59:37.950Z,2576.00
2023-10-03T08:00:37.888Z,3336.00
2023-10-03T08:01:53.143Z,5056.00
2023-10-03T08:02:38.993Z,7660.00
2023-10-03T08:03:38.007Z,6748.00
2023-10-03T08:04:37.927Z,9100.00
2023-10-03T08:05:37.898Z,15424.00
2023-10-03T08:06:37.788Z,10952.00
2023-10-03T08:07:37.798Z,7348.00
2023-10-03T08:08:37.801Z,6604.00
2023-10-03T08:09:37.900Z,5776.00
2023-10-03T08:10:37.756Z,4452.00
2023-10-03T08:11:38.366Z,3768.00
2023-10-03T08:12:37.734Z,3496.00
2023-10-03T08:13:37.728Z,3308.00
2023-10-03T08:14:39.212Z,3452.00
2023-10-03T08:15:37.694Z,4040.00
2023-10-03T08:16:37.688Z,4564.00
2023-10-03T08:17:37.726Z,4728.00
2023-10-03T08:18:37.809Z,5768.00
2023-10-03T08:19:37.659Z,7380.00
2023-10-03T08:20:37.786Z,7696.00
2023-10-03T08:21:37.604Z,5744.00
2023-10-03T08:22:37.606Z,5756.00
2023-10-03T08:23:37.613Z,8288.00
2023-10-03T08:24:37.562Z,10744.00
2023-10-03T08:25:37.604Z,8308.00
2023-10-03T08:26:37.577Z,10256.00
2023-10-03T08:27:37.548Z,9916.00
2023-10-03T08:28:37.533Z,10636.00
2023-10-03T08:29:37.552Z,7936.00
2023-10-03T08:30:37.533Z,9644.00
2023-10-03T08:31:37.502Z,10096.00
2023-10-03T08:32:37.505Z,15744.00
2023-10-03T08:33:37.817Z,9248.00
2023-10-03T08:34:37.433Z,7396.00
2023-10-03T08:35:37.446Z,6696.00
2023-10-03T08:36:37.424Z,5756.00
2023-10-03T08:37:37.407Z,5116.00
2023-10-03T08:38:37.404Z,4676.00
2023-10-03T08:39:37.410Z,4248.00
2023-10-03T08:40:37.347Z,4020.00
2023-10-03T08:41:37.396Z,3968.00
2023-10-03T08:42:37.340Z,4344.00
2023-10-03T08:43:37.317Z,4072.00
2023-10-03T08:44:37.337Z,3924.00
2023-10-03T08:45:37.304Z,3848.00
2023-10-03T08:46:37.327Z,3624.00
2023-10-03T08:47:37.360Z,3440.00
2023-10-03T08:48:37.294Z,3244.00
2023-10-03T08:49:37.290Z,3140.00
2023-10-03T08:50:37.275Z,3000.00
2023-10-03T08:51:37.242Z,2924.00
2023-10-03T08:52:37.351Z,2876.00
2023-10-03T08:53:37.234Z,2924.00
2023-10-03T08:54:37.204Z,2892.00
2023-10-03T08:55:37.182Z,2860.00
2023-10-03T08:56:37.236Z,2824.00
2023-10-03T08:57:37.144Z,2788.00
2023-10-03T08:58:37.112Z,2640.00
2023-10-03T08:59:37.200Z,2560.00
2023-10-03T09:00:37.096Z,2488.00
2023-10-03T09:01:37.101Z,2392.00
2023-10-03T09:02:37.090Z,2348.00
2023-10-03T09:03:37.149Z,2336.00
2023-10-03T09:04:37.078Z,2360.00
2023-10-03T09:05:37.083Z,2376.00
2023-10-03T09:06:37.015Z,2420.00
2023-10-03T09:07:36.994Z,2340.00
2023-10-03T09:08:37.036Z,2300.00
2023-10-03T09:09:36.984Z,2296.00
2023-10-03T09:10:36.974Z,2316.00
2023-10-03T09:11:36.963Z,2260.00
2023-10-03T09:12:36.963Z,2244.00
2023-10-03T09:13:36.913Z,2316.00
2023-10-03T09:14:36.971Z,2244.00
2023-10-03T09:15:36.892Z,2216.00
2023-10-03T09:16:36.913Z,2232.00
2023-10-03T09:17:36.975Z,2352.00
2023-10-03T09:18:36.950Z,2332.00
2023-10-03T09:19:36.833Z,2316.00
2023-10-03T09:20:36.912Z,2456.00
2023-10-03T09:21:36.928Z,2804.00
2023-10-03T09:22:36.822Z,3240.00
2023-10-03T09:23:36.820Z,3940.00
2023-10-03T09:24:36.777Z,3500.00
2023-10-03T09:25:36.781Z,3580.00
2023-10-03T09:26:36.836Z,3984.00
2023-10-03T09:27:36.744Z,3928.00
2023-10-03T09:28:36.995Z,3652.00
2023-10-03T09:29:36.726Z,3380.00
2023-10-03T09:30:36.718Z,3680.00
2023-10-03T09:31:36.708Z,3848.00
2023-10-03T09:32:36.734Z,4112.00
2023-10-03T09:33:36.714Z,4188.00
2023-10-03T09:34:36.692Z,3984.00
2023-10-03T09:35:36.705Z,4476.00
2023-10-03T09:36:36.641Z,4484.00
2023-10-03T09:37:36.625Z,4752.00
2023-10-03T09:38:36.638Z,4812.00
2023-10-03T09:39:36.585Z,4728.00
2023-10-03T09:40:36.573Z,3596.00
2023-10-03T09:41:36.610Z,3340.00
2023-10-03T09:42:36.567Z,3376.00
2023-10-03T09:43:36.556Z,3060.00
2023-10-03T09:44:36.612Z,2928.00
2023-10-03T09:45:36.504Z,3024.00
2023-10-03T09:46:36.560Z,2992.00
2023-10-03T09:47:39.255Z,2960.00
2023-10-03T09:48:36.572Z,3040.00
2023-10-03T09:49:36.439Z,2896.00
2023-10-03T09:50:36.498Z,2728.00
2023-10-03T09:51:36.441Z,2648.00
2023-10-03T09:52:36.429Z,2620.00
2023-10-03T09:53:36.430Z,2592.00
2023-10-03T09:54:36.425Z,2468.00
2023-10-03T09:55:36.400Z,2380.00
2023-10-03T09:56:36.443Z,2352.00
2023-10-03T09:57:36.344Z,2368.00
2023-10-03T09:58:36.360Z,2424.00
2023-10-03T09:59:36.340Z,2480.00
2023-10-03T10:00:36.340Z,2440.00
2023-10-03T10:01:36.347Z,2468.00
2023-10-03T10:02:36.436Z,2476.00
2023-10-03T10:03:36.336Z,2484.00
2023-10-03T10:04:36.484Z,2476.00
2023-10-03T10:05:36.336Z,2516.00
2023-10-03T10:06:36.250Z,2572.00
2023-10-03T10:07:36.262Z,2680.00
2023-10-03T10:08:38.219Z,2708.00
2023-10-03T10:09:36.204Z,2672.00
2023-10-03T10:10:36.291Z,2632.00
2023-10-03T10:11:36.217Z,2760.00
2023-10-03T10:12:36.187Z,3048.00
2023-10-03T10:13:36.148Z,3684.00
2023-10-03T10:14:36.214Z,3788.00
2023-10-03T10:15:36.124Z,3840.00
2023-10-03T10:16:36.187Z,3812.00
2023-10-03T10:17:36.151Z,3560.00
2023-10-03T10:18:36.149Z,4020.00
2023-10-03T10:19:36.185Z,3948.00
2023-10-03T10:20:36.149Z,4128.00
2023-10-03T10:21:36.063Z,3532.00
2023-10-03T10:22:36.008Z,4032.00
2023-10-03T10:23:36.150Z,3952.00
2023-10-03T10:24:36.023Z,2848.00
2023-10-03T10:25:35.976Z,2668.00
2023-10-03T10:26:36.010Z,2544.00
2023-10-03T10:27:35.967Z,2464.00
2023-10-03T10:28:36.021Z,2400.00
2023-10-03T10:29:36.025Z,2368.00
2023-10-03T10:30:35.910Z,2380.00
2023-10-03T10:31:35.978Z,2612.00
2023-10-03T10:32:35.961Z,2732.00
2023-10-03T10:33:35.992Z,2672.00
2023-10-03T10:34:35.856Z,2684.00
2023-10-03T10:35:35.910Z,2692.00
2023-10-03T10:36:35.850Z,2608.00
2023-10-03T10:37:35.832Z,2528.00
2023-10-03T10:38:35.844Z,2452.00
2023-10-03T10:39:35.793Z,2368.00
2023-10-03T10:40:35.788Z,2328.00
2023-10-03T10:41:35.839Z,2268.00
2023-10-03T10:42:35.792Z,2192.00
2023-10-03T10:43:35.742Z,2160.00
2023-10-03T10:44:35.818Z,2128.00
2023-10-03T10:45:36.709Z,2092.00
2023-10-03T10:46:35.733Z,2068.00
2023-10-03T10:47:37.598Z,2064.00
2023-10-03T10:48:35.778Z,2108.00
2023-10-03T10:49:35.663Z,2396.00
2023-10-03T10:50:35.680Z,2688.00
2023-10-03T10:51:35.653Z,2508.00
2023-10-03T10:52:35.632Z,2576.00
2023-10-03T10:53:35.686Z,3168.00
2023-10-03T10:54:35.606Z,3360.00
2023-10-03T10:55:35.593Z,3524.00
2023-10-03T10:56:35.652Z,3688.00
2023-10-03T10:57:35.583Z,3812.00
2023-10-03T10:58:35.564Z,3744.00
2023-10-03T10:59:35.547Z,3680.00
2023-10-03T11:00:35.572Z,3408.00
2023-10-03T11:01:35.579Z,3420.00
2023-10-03T11:02:35.617Z,3396.00
2023-10-03T11:03:35.672Z,3004.00
2023-10-03T11:04:35.646Z,2872.00
2023-10-03T11:05:35.538Z,2956.00
2023-10-03T11:06:35.470Z,2652.00
2023-10-03T11:07:35.427Z,2372.00
2023-10-03T11:08:35.479Z,2300.00
2023-10-03T11:09:35.461Z,2280.00
2023-10-03T11:10:36.031Z,2288.00
2023-10-03T11:11:35.480Z,2280.00
2023-10-03T11:12:35.413Z,2432.00
2023-10-03T11:13:35.371Z,2424.00
2023-10-03T11:14:35.440Z,2864.00
2023-10-03T11:15:35.377Z,2912.00
2023-10-03T11:16:35.332Z,3080.00
2023-10-03T11:17:35.329Z,3036.00
2023-10-03T11:18:35.360Z,2864.00
2023-10-03T11:19:35.378Z,2844.00
2023-10-03T11:20:35.317Z,2788.00
2023-10-03T11:21:35.279Z,2748.00
2023-10-03T11:22:35.239Z,2520.00
2023-10-03T11:23:35.310Z,2504.00
2023-10-03T11:24:35.222Z,2600.00
2023-10-03T11:25:35.188Z,2872.00
2023-10-03T11:26:35.242Z,2932.00
2023-10-03T11:27:35.181Z,2648.00
2023-10-03T11:28:35.211Z,2388.00
2023-10-03T11:29:35.188Z,2220.00
2023-10-03T11:30:35.138Z,2144.00
2023-10-03T11:31:35.185Z,2084.00
2023-10-03T11:32:35.244Z,2000.00
2023-10-03T11:33:35.172Z,1916.00
2023-10-03T11:34:35.085Z,1856.00
2023-10-03T11:35:35.082Z,1772.00
2023-10-03T11:36:35.070Z,1720.00
2023-10-03T11:37:35.152Z,1632.00
2023-10-03T11:38:35.115Z,1632.00
2023-10-03T11:39:35.009Z,1576.00
2023-10-03T11:40:35.001Z,1544.00
2023-10-03T11:41:35.239Z,1568.00
2023-10-03T11:42:34.994Z,1632.00
2023-10-03T11:43:34.970Z,1656.00
2023-10-03T11:44:34.985Z,1704.00
2023-10-03T11:45:35.403Z,1728.00
2023-10-03T11:46:34.975Z,1672.00
2023-10-03T11:47:34.964Z,1700.00
2023-10-03T11:48:35.053Z,1736.00
2023-10-03T11:49:35.038Z,1816.00
2023-10-03T11:50:34.929Z,1920.00
2023-10-03T11:51:34.862Z,2028.00
2023-10-03T11:52:34.860Z,1976.00
2023-10-03T11:53:34.876Z,1944.00
2023-10-03T11:54:34.852Z,1956.00
2023-10-03T11:55:34.814Z,2132.00
2023-10-03T11:56:35.060Z,1900.00
2023-10-03T11:57:34.824Z,1940.00
2023-10-03T11:58:34.774Z,1856.00
2023-10-03T11:59:34.869Z,1804.00
2023-10-03T12:00:34.821Z,1804.00
2023-10-03T12:01:34.777Z,1712.00
2023-10-03T12:02:34.803Z,1680.00
2023-10-03T12:03:34.904Z,1688.00
2023-10-03T12:04:34.724Z,1648.00
2023-10-03T12:05:34.701Z,1664.00
2023-10-03T12:06:34.719Z,1664.00
2023-10-03T12:07:34.660Z,1704.00
2023-10-03T12:08:34.663Z,1756.00
2023-10-03T12:09:34.648Z,1804.00
2023-10-03T12:10:34.626Z,1836.00
2023-10-03T12:11:34.645Z,1876.00
2023-10-03T12:12:34.593Z,1888.00
2023-10-03T12:13:34.596Z,1916.00
2023-10-03T12:14:35.001Z,1932.00
2023-10-03T12:15:34.558Z,2096.00
2023-10-03T12:16:34.555Z,2116.00
2023-10-03T12:17:34.603Z,2224.00
2023-10-03T12:18:34.704Z,2112.00
2023-10-03T12:19:34.603Z,2232.00
2023-10-03T12:20:36.077Z,2340.00
2023-10-03T12:21:34.468Z,2168.00
2023-10-03T12:22:34.543Z,2244.00
2023-10-03T12:23:34.498Z,2260.00
2023-10-03T12:24:34.438Z,2164.00
2023-10-03T12:25:34.430Z,2172.00
2023-10-03T12:26:34.411Z,2152.00
2023-10-03T12:27:34.386Z,2296.00
2023-10-03T12:28:34.390Z,2732.00
2023-10-03T12:29:34.470Z,2844.00
2023-10-03T12:30:34.350Z,2876.00
2023-10-03T12:31:34.416Z,2516.00
2023-10-03T12:32:34.403Z,2868.00
2023-10-03T12:33:34.423Z,3012.00
2023-10-03T12:34:34.292Z,2968.00